Time;durP1;ratioP1;P1;durP2;ratioP2;P2;SDS_P1;SDS_P2;PMS_P1;PMS_P2;Temp;Humidity;BMP_temperature;BMP_pressure;BME280_temperature;BME280_humidity;BME280_pressure;Samples;Min_cycle;Max_cycle;Signal;HPM_P1;HPM_P2
2022/09/09 00:03:24;;;;;;;2.97;0.80;;;;;;;15.20;81.75;99548.03;10499351;28;20072;-74
2022/09/09 00:08:43;;;;;;;0.55;0.50;;;;;;;15.10;82.09;99549.50;10499091;28;20483;-74
2022/09/09 00:13:56;;;;;;;1.08;0.50;;;;;;;15.09;83.27;99545.97;10498889;28;20044;-75
2022/09/09 00:19:20;;;;;;;2.25;0.50;;;;;;;15.02;82.62;99551.75;10499694;28;20041;-75
2022/09/09 00:24:41;;;;;;;0.95;0.38;;;;;;;15.01;81.98;99542.94;10499233;28;20048;-75
2022/09/09 00:29:47;;;;;;;0.57;0.50;;;;;;;15.14;81.24;99541.28;10498784;28;20079;-74
2022/09/09 00:34:57;;;;;;;0.90;0.50;;;;;;;15.25;79.96;99531.88;10500826;28;20472;-75
2022/09/09 00:40:02;;;;;;;1.83;0.50;;;;;;;15.27;79.38;99540.56;10499459;28;20625;-75
2022/09/09 00:45:28;;;;;;;0.93;0.50;;;;;;;15.38;78.68;99538.13;10498482;28;20040;-75
2022/09/09 00:50:47;;;;;;;0.83;0.50;;;;;;;15.28;78.84;99534.34;10499178;28;20045;-74
2022/09/09 00:55:58;;;;;;;1.17;0.60;;;;;;;15.30;78.09;99543.03;10496801;28;20294;-75
2022/09/09 01:01:09;;;;;;;2.67;0.60;;;;;;;15.29;78.19;99546.63;10481697;28;20044;-74
2022/09/09 01:06:26;;;;;;;2.05;0.43;;;;;;;15.32;78.29;99551.75;10480333;28;20079;-74
2022/09/09 01:11:45;;;;;;;1.73;0.63;;;;;;;15.13;79.50;99549.31;10497675;28;20033;-74
2022/09/09 01:16:50;;;;;;;4.05;0.60;;;;;;;14.79;82.95;99555.72;10481008;28;20095;-74
2022/09/09 01:22:24;;;;;;;2.00;0.60;;;;;;;14.85;82.09;99552.69;10480336;28;20044;-74
2022/09/09 01:27:26;;;;;;;3.28;0.50;;;;;;;14.69;83.44;99552.69;10479948;28;20569;-74
2022/09/09 01:32:48;;;;;;;2.97;0.60;;;;;;;14.71;82.53;99545.56;10478870;28;20151;-75
2022/09/09 01:37:50;;;;;;;1.55;0.60;;;;;;;14.56;83.57;99543.75;10502456;28;20111;-74
2022/09/09 01:42:53;;;;;;;1.40;0.63;;;;;;;14.29;85.97;99538.16;10487114;28;20052;-74
2022/09/09 01:47:56;;;;;;;2.78;0.65;;;;;;;14.01;88.95;99541.47;10486837;28;20510;-74
2022/09/09 01:53:16;;;;;;;0.80;0.50;;;;;;;13.83;91.98;99540.66;10506290;28;20064;-74
2022/09/09 01:58:28;;;;;;;1.00;0.63;;;;;;;13.71;92.75;99538.66;10488157;28;20063;-74
2022/09/09 02:03:34;;;;;;;1.75;0.60;;;;;;;13.60;94.00;99536.59;10486653;28;20045;-74
2022/09/09 02:08:48;;;;;;;1.85;0.95;;;;;;;13.52;94.43;99544.06;10486265;28;20093;-74
2022/09/09 02:13:54;;;;;;;1.77;0.70;;;;;;;13.35;96.42;99542.28;10504626;28;20048;-74
2022/09/09 02:18:59;;;;;;;1.80;0.90;;;;;;;13.28;97.85;99540.84;10504120;28;20036;-76
2022/09/09 02:24:15;;;;;;;3.33;0.70;;;;;;;13.23;97.75;99537.59;10503877;28;20040;-74
2022/09/09 02:29:30;;;;;;;2.90;0.80;;;;;;;13.38;97.71;99547.41;10485556;28;20055;-74
2022/09/09 02:34:37;;;;;;;3.92;0.98;;;;;;;13.36;97.87;99543.97;10485336;28;20514;-75
2022/09/09 02:39:39;;;;;;;0.80;0.80;;;;;;;13.20;99.09;99543.88;10476711;28;20465;-74
2022/09/09 02:44:45;;;;;;;3.63;1.63;;;;;;;12.97;100.00;99547.66;10484853;28;20139;-74
2022/09/09 02:49:59;;;;;;;1.83;1.00;;;;;;;12.95;100.00;99538.09;10502162;28;20044;-74
2022/09/09 02:55:21;;;;;;;2.70;1.40;;;;;;;13.07;100.00;99541.00;10484175;28;20457;-74
2022/09/09 03:00:27;;;;;;;2.08;1.10;;;;;;;13.25;99.42;99555.09;10465704;28;20073;-75
2022/09/09 03:05:34;;;;;;;3.20;1.10;;;;;;;13.25;98.38;99547.16;10484026;28;20050;-74
2022/09/09 03:10:36;;;;;;;2.35;0.93;;;;;;;13.26;98.35;99546.22;10501550;28;20039;-74
2022/09/09 03:15:38;;;;;;;3.88;1.08;;;;;;;13.01;100.00;99551.84;10502012;28;20410;-74
2022/09/09 03:20:43;;;;;;;1.70;1.08;;;;;;;12.79;100.00;99544.16;10483596;28;20214;-74
2022/09/09 03:25:49;;;;;;;2.60;1.60;;;;;;;12.58;100.00;99551.31;10483932;28;20094;-74
2022/09/09 03:30:58;;;;;;;3.00;1.30;;;;;;;12.44;100.00;99552.84;10482315;28;20563;-75
2022/09/09 03:36:00;;;;;;;2.40;1.20;;;;;;;12.33;100.00;99546.31;10500154;28;20047;-75
2022/09/09 03:41:06;;;;;;;2.42;1.13;;;;;;;12.35;100.00;99546.22;10480861;28;20051;-73
2022/09/09 03:46:08;;;;;;;2.17;1.40;;;;;;;12.55;100.00;99546.16;10468653;28;20052;-74
2022/09/09 03:51:10;;;;;;;3.25;1.40;;;;;;;12.66;100.00;99548.31;10501103;28;20086;-74
2022/09/09 03:56:12;;;;;;;3.33;1.40;;;;;;;12.89;100.00;99539.28;10482965;28;20052;-74
2022/09/09 04:01:16;;;;;;;1.67;1.40;;;;;;;12.59;100.00;99538.97;10500519;28;20028;-74
2022/09/09 04:06:20;;;;;;;3.30;1.63;;;;;;;12.40;100.00;99546.91;10483122;28;20143;-74
2022/09/09 04:11:22;;;;;;;1.75;1.25;;;;;;;12.31;100.00;99547.34;10483000;28;20063;-74
2022/09/09 04:16:27;;;;;;;2.08;1.35;;;;;;;12.31;100.00;99555.25;10481690;28;20044;-74
2022/09/09 04:21:29;;;;;;;2.67;1.60;;;;;;;12.44;100.00;99560.75;10482978;28;20045;-74
2022/09/09 04:26:30;;;;;;;2.20;1.48;;;;;;;12.86;100.00;99560.50;10482548;28;20056;-74
2022/09/09 04:31:34;;;;;;;6.35;1.30;;;;;;;12.93;100.00;99561.94;10483699;28;20045;-74
2022/09/09 04:36:36;;;;;;;7.97;1.77;;;;;;;12.72;100.00;99553.28;10481765;28;20071;-75
2022/09/09 04:41:39;;;;;;;3.70;1.60;;;;;;;12.58;100.00;99566.28;10500088;28;20505;-73
2022/09/09 04:46:44;;;;;;;4.60;2.08;;;;;;;12.49;100.00;99567.56;10481700;28;20106;-74
2022/09/09 04:51:49;;;;;;;11.30;2.38;;;;;;;12.66;100.00;99563.25;10482301;28;20059;-74
2022/09/09 04:56:52;;;;;;;3.90;1.83;;;;;;;12.72;100.00;99562.97;10481050;28;20093;-74
2022/09/09 05:01:55;;;;;;;3.45;2.15;;;;;;;12.78;100.00;99562.66;10498199;28;20047;-74
2022/09/09 05:06:57;;;;;;;4.03;2.33;;;;;;;12.88;100.00;99563.91;10499230;28;20540;-74
2022/09/09 05:11:59;;;;;;;4.90;1.77;;;;;;;12.87;100.00;99570.13;10484466;28;20053;-74
2022/09/09 05:17:05;;;;;;;3.55;1.73;;;;;;;13.22;100.00;99567.53;10488504;28;20051;-74
2022/09/09 05:22:10;;;;;;;2.80;2.13;;;;;;;13.28;100.00;99565.50;10489263;28;20121;-75
2022/09/09 05:27:19;;;;;;;4.05;1.63;;;;;;;13.23;100.00;99574.56;10488370;28;20051;-75
2022/09/09 05:32:22;;;;;;;6.05;1.77;;;;;;;13.34;100.00;99588.09;10490125;28;20053;-75
2022/09/09 05:37:26;;;;;;;4.53;1.70;;;;;;;13.46;100.00;99592.75;10511491;28;20123;-75
2022/09/09 05:42:32;;;;;;;2.30;1.20;;;;;;;13.70;100.00;99595.91;10495130;28;20049;-75
2022/09/09 05:47:37;;;;;;;1.75;1.40;;;;;;;13.83;100.00;99598.78;10498822;28;20044;-75
2022/09/09 05:52:44;;;;;;;4.53;1.90;;;;;;;13.92;100.00;99603.59;10505750;28;20102;-75
2022/09/09 05:57:51;;;;;;;2.58;1.25;;;;;;;14.09;100.00;99611.47;10509425;28;20038;-74
2022/09/09 06:02:54;;;;;;;5.43;1.20;;;;;;;14.32;100.00;99604.97;10488830;28;20072;-74
2022/09/09 06:07:56;;;;;;;2.83;1.48;;;;;;;14.42;98.20;99604.47;10509527;28;20036;-74
2022/09/09 06:12:59;;;;;;;5.03;1.95;;;;;;;14.73;93.98;99598.38;10510731;28;20119;-74
2022/09/09 06:18:02;;;;;;;2.75;1.30;;;;;;;14.66;96.36;99600.50;10491560;28;20047;-75
2022/09/09 06:23:12;;;;;;;3.67;1.80;;;;;;;15.07;92.94;99610.56;10506274;28;20508;-74
2022/09/09 06:28:15;;;;;;;1.50;1.08;;;;;;;15.16;92.82;99604.72;10507687;28;20045;-74
2022/09/09 06:33:20;;;;;;;2.67;1.23;;;;;;;15.04;91.69;99602.78;10491412;28;20055;-74
2022/09/09 06:38:23;;;;;;;4.53;1.65;;;;;;;15.07;93.66;99608.75;10492294;28;20506;-74
2022/09/09 06:43:27;;;;;;;5.10;1.15;;;;;;;14.94;94.17;99599.81;10488923;28;20044;-74
2022/09/09 06:48:30;;;;;;;2.65;1.50;;;;;;;15.13;94.31;99608.41;10488381;28;20391;-74
2022/09/09 06:53:33;;;;;;;2.90;1.20;;;;;;;15.58;89.01;99605.81;10502959;28;20056;-74
2022/09/09 06:58:45;;;;;;;5.97;1.75;;;;;;;15.73;90.30;99599.66;10540691;22;20489;-74
2022/09/09 07:03:56;;;;;;;3.05;1.63;;;;;;;16.03;87.00;99602.25;10543575;28;20105;-74
2022/09/09 07:09:06;;;;;;;2.38;1.20;;;;;;;16.16;89.01;99605.00;10526468;28;20040;-74
2022/09/09 07:14:09;;;;;;;6.07;1.73;;;;;;;16.75;83.26;99596.91;10527291;28;20120;-73
2022/09/09 07:19:12;;;;;;;3.75;1.38;;;;;;;17.03;81.58;99591.50;10544391;28;20066;-73
2022/09/09 07:24:15;;;;;;;4.22;1.40;;;;;;;17.12;79.81;99601.53;10509882;28;20044;-74
2022/09/09 07:29:17;;;;;;;5.10;1.55;;;;;;;17.32;81.94;99599.38;10525867;28;20040;-74
2022/09/09 07:34:22;;;;;;;2.60;1.17;;;;;;;17.80;80.71;99599.72;10525851;28;20055;-74
2022/09/09 07:39:25;;;;;;;3.65;1.25;;;;;;;18.07;78.93;99595.13;10525577;28;20040;-74
2022/09/09 07:44:28;;;;;;;3.15;1.52;;;;;;;18.44;76.95;99600.53;10527315;28;20394;-74
2022/09/09 07:49:37;;;;;;;3.40;1.45;;;;;;;18.73;74.79;99593.16;10542567;28;20098;-75
2022/09/09 07:54:41;;;;;;;4.10;1.25;;;;;;;18.83;73.73;99603.97;10509050;28;20139;-74
2022/09/09 07:59:45;;;;;;;4.97;1.10;;;;;;;18.55;74.88;99603.28;10524780;28;20051;-74
2022/09/09 08:04:47;;;;;;;3.17;1.20;;;;;;;18.98;74.09;99618.81;10526359;28;20048;-73
2022/09/09 08:09:51;;;;;;;2.50;1.13;;;;;;;18.82;78.27;99613.78;10542556;28;20437;-73
2022/09/09 08:14:57;;;;;;;4.28;1.40;;;;;;;19.05;76.66;99619.25;10524570;28;20493;-73
2022/09/09 08:20:04;;;;;;;2.97;1.20;;;;;;;18.84;76.60;99616.31;10524524;28;20502;-75
2022/09/09 08:25:08;;;;;;;2.55;1.33;;;;;;;18.93;80.84;99615.66;10509563;28;20048;-75
2022/09/09 08:30:11;;;;;;;6.95;1.25;;;;;;;19.35;77.79;99624.97;10522150;28;20505;-74
2022/09/09 08:35:14;;;;;;;4.43;1.40;;;;;;;19.44;79.83;99622.59;10522195;28;20493;-75
2022/09/09 08:40:26;;;;;;;2.70;1.17;;;;;;;19.49;78.95;99626.59;10524110;28;20102;-74
2022/09/09 08:45:49;;;;;;;4.63;0.98;;;;;;;19.71;77.76;99627.69;10524383;28;20048;-75
2022/09/09 08:50:52;;;;;;;2.63;1.20;;;;;;;20.02;75.94;99629.69;10523693;28;20040;-76
2022/09/09 08:56:06;;;;;;;2.92;0.85;;;;;;;20.69;66.27;99623.56;10524184;28;20047;-75
2022/09/09 09:01:24;;;;;;;2.80;1.27;;;;;;;20.68;70.49;99629.88;10508708;28;20130;-75
2022/09/09 09:06:36;;;;;;;3.70;0.80;;;;;;;20.62;65.55;99633.88;10522245;28;20131;-75
2022/09/09 09:11:44;;;;;;;1.65;0.60;;;;;;;20.56;64.23;99630.84;10525093;28;20044;-76
2022/09/09 09:16:57;;;;;;;2.60;0.70;;;;;;;20.68;60.28;99639.72;10540046;28;20042;-76
2022/09/09 09:22:04;;;;;;;2.25;0.70;;;;;;;20.49;58.74;99656.31;10523559;28;20097;-76
2022/09/09 09:27:14;;;;;;;;;;;;;;;20.15;63.73;99651.78;10522035;28;20040;-75
2022/09/09 09:32:22;;;;;;;1.70;0.60;;;;;;;19.92;65.26;99644.69;10524308;28;20002;-75
2022/09/09 09:37:31;;;;;;;3.53;0.80;;;;;;;20.09;65.87;99651.41;10521551;28;20048;-75
2022/09/09 09:42:34;;;;;;;1.25;0.60;;;;;;;20.42;69.77;99645.25;10522390;28;20554;-75
2022/09/09 09:47:35;;;;;;;11.00;1.02;;;;;;;21.06;66.79;99647.28;10530459;28;20040;-75
2022/09/09 09:53:00;;;;;;;1.80;0.80;;;;;;;21.78;61.02;99635.97;10506765;28;20039;-75
2022/09/09 09:58:06;;;;;;;1.77;0.63;;;;;;;22.29;57.44;99636.06;10524120;28;20118;-75
2022/09/09 10:03:24;;;;;;;2.77;0.63;;;;;;;22.86;55.08;99631.06;10531098;28;20070;-75
2022/09/09 10:08:28;;;;;;;2.83;0.80;;;;;;;23.67;54.88;99623.72;10528442;28;20040;-75
2022/09/09 10:13:49;;;;;;;3.15;0.60;;;;;;;23.98;54.26;99621.72;10524597;28;20048;-75
2022/09/09 10:19:02;;;;;;;2.38;0.60;;;;;;;24.51;52.42;99626.53;10514207;28;20036;-76
2022/09/09 10:24:24;;;;;;;2.38;0.60;;;;;;;24.60;51.17;99625.63;10529400;28;20047;-77
2022/09/09 10:29:38;;;;;;;2.25;0.60;;;;;;;24.83;51.14;99620.69;10548565;28;20078;-77
2022/09/09 10:35:04;;;;;;;2.35;0.60;;;;;;;25.52;48.97;99623.81;10548316;28;20456;-76
2022/09/09 10:40:19;;;;;;;1.48;0.60;;;;;;;25.09;51.01;99612.78;10547234;28;20063;-76
2022/09/09 10:45:26;;;;;;;1.40;0.60;;;;;;;24.40;51.32;99602.56;10547458;28;20128;-77
2022/09/09 10:50:49;;;;;;;2.38;0.60;;;;;;;24.97;52.52;99595.19;10546417;28;20330;-77
2022/09/09 10:56:12;;;;;;;3.17;0.60;;;;;;;24.06;53.66;99597.69;10524055;28;20094;-77
2022/09/09 11:01:41;;;;;;;2.15;0.75;;;;;;;23.04;55.46;99586.56;10490731;28;20051;-78
2022/09/09 11:06:48;;;;;;;4.93;0.60;;;;;;;22.48;57.95;99592.44;10497356;28;20044;-77
2022/09/09 11:11:54;;;;;;;2.13;0.60;;;;;;;22.16;60.42;99582.72;10546566;28;20075;-76
2022/09/09 11:17:00;;;;;;;2.13;0.70;;;;;;;21.92;59.97;99580.34;10514333;28;20083;-76
2022/09/09 11:22:05;;;;;;;;;;;;;;;22.02;59.96;99590.25;10534166;28;20101;-76
2022/09/09 11:27:25;;;;;;;1.33;0.60;;;;;;;21.92;64.09;99579.50;10508741;28;19920;-77
2022/09/09 11:32:26;;;;;;;2.03;0.90;;;;;;;21.91;61.01;99577.78;10487958;28;20087;-77
2022/09/09 11:37:50;;;;;;;3.63;0.90;;;;;;;21.79;62.30;99585.03;10505345;28;20040;-71
2022/09/09 11:43:07;;;;;;;1.48;0.80;;;;;;;21.75;62.84;99575.59;10467790;28;20064;-71
2022/09/09 11:48:34;;;;;;;2.78;0.60;;;;;;;22.00;62.36;99563.63;10501143;28;20036;-72
2022/09/09 11:53:54;;;;;;;2.05;0.77;;;;;;;22.30;64.92;99569.97;10489266;28;20080;-71
2022/09/09 11:59:19;;;;;;;2.83;0.77;;;;;;;23.01;60.25;99568.06;10483239;28;20064;-71
2022/09/09 12:04:44;;;;;;;1.73;0.77;;;;;;;22.97;57.97;99566.66;10504091;28;20044;-72
2022/09/09 12:09:56;;;;;;;2.05;0.80;;;;;;;22.46;59.93;99556.94;10524147;28;20070;-72
2022/09/09 12:15:06;;;;;;;3.38;0.88;;;;;;;22.28;61.57;99548.69;10513916;28;20072;-70
2022/09/09 12:20:35;;;;;;;1.88;0.70;;;;;;;22.22;62.70;99551.06;10482281;28;20418;-71
2022/09/09 12:25:55;;;;;;;1.30;0.80;;;;;;;21.80;63.92;99554.63;10533132;28;20040;-71
2022/09/09 12:31:07;;;;;;;2.42;0.80;;;;;;;21.97;63.60;99538.94;10544402;28;20051;-71
2022/09/09 12:36:14;;;;;;;3.35;1.13;;;;;;;21.92;64.27;99544.69;10542990;28;20139;-71
2022/09/09 12:41:24;;;;;;;3.85;1.33;;;;;;;22.29;62.54;99538.84;10541748;28;20071;-71
2022/09/09 12:46:36;;;;;;;2.75;0.98;;;;;;;22.83;61.66;99524.16;10523851;28;20146;-70
2022/09/09 12:51:38;;;;;;;3.22;1.00;;;;;;;22.76;60.31;99528.38;10542545;28;20040;-71
2022/09/09 12:56:39;;;;;;;2.58;1.00;;;;;;;22.76;59.79;99526.56;10540441;22;20051;-72
2022/09/09 13:01:41;;;;;;;3.10;0.90;;;;;;;22.45;59.59;99522.25;10498312;28;20051;-72
2022/09/09 13:06:43;;;;;;;2.30;1.00;;;;;;;22.24;60.39;99504.44;10503841;28;20036;-71
2022/09/09 13:11:52;;;;;;;3.05;1.10;;;;;;;22.26;60.06;99496.25;10539348;28;20036;-72
2022/09/09 13:16:59;;;;;;;2.65;0.90;;;;;;;22.42;58.12;99489.41;10539268;28;20439;-71
2022/09/09 13:22:20;;;;;;;1.80;0.80;;;;;;;22.39;57.95;99491.50;10539119;28;20460;-72
2022/09/09 13:27:40;;;;;;;2.05;0.68;;;;;;;22.52;58.11;99496.59;10538932;28;20059;-71
2022/09/09 13:32:42;;;;;;;5.43;0.82;;;;;;;22.41;57.37;99493.06;10524505;28;20452;-73
2022/09/09 13:37:43;;;;;;;1.38;0.70;;;;;;;22.48;56.29;99487.16;10546944;28;20412;-73
2022/09/09 13:42:45;;;;;;;2.53;0.73;;;;;;;22.75;56.27;99495.38;10547553;28;20473;-73
2022/09/09 13:47:51;;;;;;;3.42;0.93;;;;;;;23.07;56.99;99499.66;10546242;28;20131;-73
2022/09/09 13:52:58;;;;;;;1.25;0.52;;;;;;;22.83;55.48;99505.41;10546440;28;20040;-74
2022/09/09 13:58:01;;;;;;;2.92;0.73;;;;;;;22.65;58.37;99508.75;10545987;28;20064;-75
2022/09/09 14:03:03;;;;;;;3.50;1.30;;;;;;;22.34;59.11;99501.78;10545728;28;20493;-74
2022/09/09 14:08:07;;;;;;;2.80;0.80;;;;;;;22.26;59.88;99496.25;10527499;28;20567;-74
2022/09/09 14:13:08;;;;;;;2.80;0.80;;;;;;;22.77;57.39;99497.94;10546187;28;20409;-74
2022/09/09 14:18:13;;;;;;;2.22;0.80;;;;;;;22.95;54.71;99501.63;10546553;28;20056;-73
2022/09/09 14:23:15;;;;;;;2.90;0.85;;;;;;;22.98;56.25;99487.97;10545503;28;20087;-75
2022/09/09 14:28:17;;;;;;;2.13;0.80;;;;;;;23.19;54.98;99485.09;10527037;28;20059;-74
2022/09/09 14:33:28;;;;;;;3.88;0.60;;;;;;;23.14;54.27;99477.50;10545427;28;20110;-73
2022/09/09 14:38:39;;;;;;;1.83;0.63;;;;;;;23.08;52.53;99467.34;10527920;28;20493;-74
2022/09/09 14:43:41;;;;;;;1.77;0.60;;;;;;;23.15;51.32;99464.94;10545714;28;20044;-75
2022/09/09 14:48:43;;;;;;;1.80;0.60;;;;;;;23.37;52.55;99466.44;10549974;28;20044;-77
2022/09/09 14:53:46;;;;;;;2.22;0.73;;;;;;;23.26;53.18;99461.25;10546649;28;20051;-76
2022/09/09 14:58:49;;;;;;;2.53;0.70;;;;;;;23.03;53.56;99461.56;10528399;28;20036;-75
2022/09/09 15:03:53;;;;;;;1.65;0.68;;;;;;;22.84;53.91;99462.41;10527449;28;20496;-73
2022/09/09 15:08:57;;;;;;;2.10;0.57;;;;;;;22.81;51.03;99475.22;10544595;28;20059;-75
2022/09/09 15:14:01;;;;;;;0.73;0.40;;;;;;;22.84;46.78;99462.41;10545493;28;20123;-76
2022/09/09 15:19:03;;;;;;;2.13;0.50;;;;;;;22.82;49.48;99455.47;10548153;28;20048;-77
2022/09/09 15:24:08;;;;;;;3.80;0.70;;;;;;;22.67;51.96;99458.56;10549178;28;20048;-79
2022/09/09 15:29:10;;;;;;;1.33;0.53;;;;;;;22.80;49.56;99465.47;10550276;28;20078;-76
2022/09/09 15:34:13;;;;;;;1.30;0.40;;;;;;;22.89;49.45;99461.97;10531029;28;20075;-77
2022/09/09 15:39:17;;;;;;;2.78;0.68;;;;;;;23.02;46.36;99478.66;10548136;28;20048;-77
2022/09/09 15:44:19;;;;;;;1.02;0.50;;;;;;;22.86;48.20;99476.50;10533566;28;20048;-77
2022/09/09 15:49:25;;;;;;;1.77;0.50;;;;;;;22.65;48.97;99468.56;10529593;28;20076;-76
2022/09/09 15:54:26;;;;;;;1.55;0.70;;;;;;;22.51;50.59;99473.50;10545533;28;20071;-76
2022/09/09 15:59:30;;;;;;;1.90;0.60;;;;;;;22.42;49.54;99462.63;10547852;28;20051;-77
2022/09/09 16:04:33;;;;;;;2.75;0.88;;;;;;;22.42;52.16;99461.78;10549729;28;20040;-78
2022/09/09 16:09:36;;;;;;;2.10;1.40;;;;;;;22.19;54.77;99455.81;10551255;28;20048;-77
2022/09/09 16:14:39;;;;;;;4.40;2.83;;;;;;;22.34;55.36;99464.28;10550229;28;20044;-75
2022/09/09 16:19:41;;;;;;;2.90;1.02;;;;;;;22.15;55.66;99463.25;10552725;28;20507;-76
2022/09/09 16:24:44;;;;;;;1.85;1.00;;;;;;;21.81;57.21;99475.22;10558578;28;20082;-77
2022/09/09 16:29:47;;;;;;;1.75;0.80;;;;;;;21.54;59.02;99476.63;10538959;28;20051;-76
2022/09/09 16:34:49;;;;;;;2.92;1.17;;;;;;;21.57;61.41;99470.19;10533422;28;20052;-74
2022/09/09 16:39:54;;;;;;;2.47;1.02;;;;;;;21.60;62.08;99478.78;10550170;28;20040;-75
2022/09/09 16:44:56;;;;;;;2.60;1.00;;;;;;;21.37;64.06;99487.91;10530662;28;20051;-75
2022/09/09 16:49:58;;;;;;;2.55;1.00;;;;;;;21.24;65.32;99497.91;10545895;28;20028;-73
2022/09/09 16:55:00;;;;;;;1.45;1.05;;;;;;;21.35;65.35;99503.25;10543115;28;20094;-72
2022/09/09 17:00:04;;;;;;;2.25;1.30;;;;;;;21.30;65.27;99503.59;10544901;28;20044;-72
2022/09/09 17:05:12;;;;;;;3.53;1.60;;;;;;;21.27;64.77;99503.00;10547808;28;20050;-71
2022/09/09 17:10:15;;;;;;;3.17;1.35;;;;;;;21.24;61.51;99500.59;10558475;28;20047;-71
2022/09/09 17:15:17;;;;;;;2.28;0.88;;;;;;;21.12;58.77;99506.00;10540350;28;20509;-72
2022/09/09 17:20:20;;;;;;;2.30;0.90;;;;;;;21.20;53.91;99515.19;10539816;28;20047;-74
2022/09/09 17:25:22;;;;;;;1.27;0.63;;;;;;;20.96;53.50;99510.09;10558035;28;20413;-74
2022/09/09 17:30:24;;;;;;;2.38;0.90;;;;;;;20.77;52.57;99516.94;10558171;28;20074;-74
2022/09/09 17:35:27;;;;;;;1.17;0.63;;;;;;;20.59;52.78;99515.78;10556973;28;20056;-74
2022/09/09 17:40:28;;;;;;;3.85;1.35;;;;;;;20.26;54.60;99530.00;10556802;28;20058;-74
2022/09/09 17:45:31;;;;;;;1.75;1.30;;;;;;;19.73;56.03;99530.56;10556942;28;20133;-74
2022/09/09 17:50:33;;;;;;;0.90;0.80;;;;;;;19.52;58.10;99541.06;10556744;28;20040;-74
2022/09/09 17:55:35;;;;;;;3.08;1.10;;;;;;;19.21;60.05;99545.19;10558665;28;20440;-73
2022/09/09 18:00:37;;;;;;;1.08;0.85;;;;;;;19.20;58.45;99548.81;10558128;28;20106;-74
2022/09/09 18:05:39;;;;;;;2.40;1.00;;;;;;;19.32;59.16;99563.06;10561067;28;20040;-73
2022/09/09 18:10:43;;;;;;;1.80;1.00;;;;;;;19.42;56.80;99575.56;10521490;28;20489;-73
2022/09/09 18:15:45;;;;;;;0.77;0.55;;;;;;;19.42;55.79;99580.88;10557662;28;20044;-73
2022/09/09 18:21:02;;;;;;;2.30;1.00;;;;;;;19.39;55.84;99583.81;10554671;28;20059;-74
2022/09/09 18:26:09;;;;;;;1.63;0.85;;;;;;;19.05;57.61;99571.28;10543372;28;20067;-74
2022/09/09 18:31:13;;;;;;;1.38;0.70;;;;;;;18.73;58.25;99563.88;10545304;28;20064;-74
2022/09/09 18:36:18;;;;;;;1.60;1.00;;;;;;;18.52;60.91;99566.22;10545658;28;20131;-74
2022/09/09 18:41:29;;;;;;;2.13;0.93;;;;;;;18.44;62.83;99575.72;10545426;28;20409;-73
2022/09/09 18:46:33;;;;;;;1.77;1.08;;;;;;;18.23;61.80;99578.94;10545590;28;20386;-75
2022/09/09 18:51:36;;;;;;;1.15;0.80;;;;;;;18.11;61.86;99587.81;10545147;28;20043;-73
2022/09/09 18:56:38;;;;;;;1.73;1.00;;;;;;;17.94;62.16;99602.25;10543858;28;20040;-73
2022/09/09 19:01:41;;;;;;;2.97;1.40;;;;;;;17.94;64.52;99598.75;10526433;28;20086;-71
2022/09/09 19:06:46;;;;;;;1.20;1.10;;;;;;;17.87;67.12;99585.88;10544174;28;20048;-71
2022/09/09 19:11:48;;;;;;;3.87;1.53;;;;;;;18.01;69.69;99594.69;10544066;28;20114;-71
2022/09/09 19:16:50;;;;;;;2.22;1.60;;;;;;;18.02;71.76;99599.09;10544004;28;20048;-72
2022/09/09 19:21:56;;;;;;;1.98;1.33;;;;;;;17.85;73.27;99600.25;10526590;28;20047;-72
2022/09/09 19:27:01;;;;;;;4.03;1.60;;;;;;;17.69;74.61;99603.06;10543684;28;20040;-72
2022/09/09 19:32:03;;;;;;;1.55;1.30;;;;;;;17.51;76.74;99606.97;10541237;28;20074;-73
2022/09/09 19:37:25;;;;;;;2.65;1.45;;;;;;;17.49;77.21;99612.38;10542118;28;20067;-71
2022/09/09 19:42:28;;;;;;;2.30;1.38;;;;;;;17.62;77.76;99615.91;10541945;28;20060;-72
2022/09/09 19:47:30;;;;;;;1.58;1.38;;;;;;;17.51;77.78;99612.28;10541676;28;20567;-72
2022/09/09 19:52:32;;;;;;;3.08;1.83;;;;;;;17.47;79.14;99611.63;10541898;28;20074;-72
2022/09/09 19:57:34;;;;;;;3.67;1.90;;;;;;;17.55;78.89;99613.78;10523075;28;20094;-72
2022/09/09 20:02:36;;;;;;;6.18;1.35;;;;;;;17.60;77.71;99614.31;10523636;28;20083;-71
2022/09/09 20:07:37;;;;;;;2.47;1.38;;;;;;;17.26;79.95;99615.69;10540838;28;20043;-71
2022/09/09 20:12:39;;;;;;;1.98;1.35;;;;;;;17.30;78.46;99619.84;10541279;28;20090;-71
2022/09/09 20:17:41;;;;;;;5.75;1.73;;;;;;;17.18;80.16;99624.19;10522544;28;20413;-71
2022/09/09 20:22:42;;;;;;;3.55;2.13;;;;;;;17.18;79.84;99632.16;10540336;28;20138;-71
2022/09/09 20:27:44;;;;;;;3.63;1.83;;;;;;;17.01;82.10;99635.91;10523192;28;20455;-72
2022/09/09 20:32:46;;;;;;;3.78;1.67;;;;;;;16.94;82.08;99631.94;10540442;28;20068;-72
2022/09/09 20:37:47;;;;;;;3.45;2.05;;;;;;;17.04;82.50;99645.47;10539778;28;20044;-71
2022/09/09 20:42:50;;;;;;;3.13;2.10;;;;;;;17.16;82.36;99644.66;10539301;28;20118;-71
2022/09/09 20:47:55;;;;;;;2.75;1.92;;;;;;;17.03;83.28;99647.25;10539330;28;20462;-71
2022/09/09 20:52:57;;;;;;;3.97;2.35;;;;;;;17.09;83.84;99641.56;10539559;28;20455;-72
2022/09/09 20:58:00;;;;;;;2.97;2.13;;;;;;;16.98;85.76;99648.53;10539224;28;20044;-71
2022/09/09 21:03:01;;;;;;;3.05;2.28;;;;;;;16.90;87.21;99654.31;10539269;28;20040;-72
2022/09/09 21:08:03;;;;;;;3.88;2.38;;;;;;;16.93;86.96;99664.75;10539593;28;20477;-72
2022/09/09 21:13:04;;;;;;;2.70;2.03;;;;;;;16.96;87.29;99661.91;10539611;28;20115;-71
2022/09/09 21:18:06;;;;;;;2.72;2.00;;;;;;;17.00;88.97;99655.44;10538871;28;20051;-71
2022/09/09 21:23:12;;;;;;;4.32;2.35;;;;;;;16.93;92.71;99664.75;10539380;28;20398;-71
2022/09/09 21:28:15;;;;;;;5.47;2.47;;;;;;;17.27;91.41;99658.13;10538843;28;20052;-72
2022/09/09 21:33:19;;;;;;;3.15;2.28;;;;;;;17.21;89.49;99650.53;10538630;28;20851;-72
2022/09/09 21:38:22;;;;;;;3.78;2.47;;;;;;;17.17;90.81;99656.16;10538405;28;20044;-72
2022/09/09 21:43:23;;;;;;;5.05;2.28;;;;;;;17.09;91.37;99660.16;10538771;28;20048;-72
2022/09/09 21:48:25;;;;;;;3.92;2.28;;;;;;;16.81;93.07;99658.41;10538078;28;20528;-71
2022/09/09 21:53:27;;;;;;;2.90;2.10;;;;;;;16.70;94.18;99658.22;10541073;28;20039;-72
2022/09/09 21:58:29;;;;;;;3.45;2.17;;;;;;;16.48;94.54;99653.41;10546056;28;20044;-71
2022/09/09 22:03:30;;;;;;;2.47;2.28;;;;;;;16.50;94.56;99650.63;10527810;28;20048;-71
2022/09/09 22:08:32;;;;;;;2.75;2.22;;;;;;;16.37;95.37;99651.38;10545407;28;20048;-71
2022/09/09 22:13:35;;;;;;;3.50;2.55;;;;;;;16.57;95.36;99646.66;10545654;28;20059;-71
2022/09/09 22:18:37;;;;;;;2.85;2.22;;;;;;;16.58;94.96;99643.06;10527092;28;20051;-72
2022/09/09 22:23:38;;;;;;;4.28;2.60;;;;;;;16.44;97.14;99641.28;10545133;28;20071;-71
2022/09/09 22:28:40;;;;;;;3.85;2.20;;;;;;;16.42;96.57;99637.84;10544901;28;20076;-72
2022/09/09 22:33:42;;;;;;;4.47;2.30;;;;;;;16.22;96.32;99630.28;10509958;28;20456;-72
2022/09/09 22:38:43;;;;;;;2.05;1.85;;;;;;;16.09;96.98;99631.03;10544948;28;20048;-72
2022/09/09 22:43:46;;;;;;;3.00;1.90;;;;;;;16.00;97.58;99633.38;10544078;28;20539;-72
2022/09/09 22:48:47;;;;;;;2.50;2.08;;;;;;;15.98;97.27;99629.97;10544112;28;20043;-71
2022/09/09 22:53:49;;;;;;;6.80;2.17;;;;;;;15.94;97.19;99628.44;10544414;28;20561;-71
2022/09/09 22:58:55;;;;;;;2.47;2.10;;;;;;;16.06;97.10;99617.94;10543460;28;20511;-72
2022/09/09 23:04:01;;;;;;;3.00;1.90;;;;;;;15.85;97.81;99614.81;10543735;28;20036;-72
2022/09/09 23:09:03;;;;;;;5.45;2.40;;;;;;;16.09;95.70;99620.41;10525757;28;20122;-72
2022/09/09 23:14:08;;;;;;;3.15;2.15;;;;;;;16.06;95.60;99620.59;10524916;28;20505;-71
2022/09/09 23:19:14;;;;;;;9.00;2.55;;;;;;;15.61;96.90;99609.13;10543568;28;20055;-71
2022/09/09 23:24:17;;;;;;;4.63;2.13;;;;;;;15.56;97.15;99611.22;10542649;28;20550;-71
2022/09/09 23:29:20;;;;;;;3.05;2.13;;;;;;;15.42;97.84;99612.97;10543077;28;20079;-72
2022/09/09 23:34:21;;;;;;;4.38;2.22;;;;;;;15.34;97.54;99608.97;10542354;28;20434;-71
2022/09/09 23:39:23;;;;;;;4.00;1.80;;;;;;;15.32;96.79;99616.16;10543128;28;20064;-71
2022/09/09 23:44:25;;;;;;;2.58;1.85;;;;;;;15.22;96.77;99612.31;10542089;28;20044;-71